sensor_id;sensor_type;location;lat;lon;timestamp;pressure;altitude;pressure_sealevel;temperature;humidity
56042;BME280;48756;41.374;2.066;2023-04-01T00:01:51;101125.69;;;16.95;71.03
56042;BME280;48756;41.374;2.066;2023-04-01T00:04:16;101122.38;;;16.89;71.80
56042;BME280;48756;41.374;2.066;2023-04-01T00:06:42;101120.66;;;16.88;71.71
56042;BME280;48756;41.374;2.066;2023-04-01T00:09:08;101123.47;;;16.81;72.29
56042;BME280;48756;41.374;2.066;2023-04-01T00:11:33;101124.03;;;16.60;72.75
56042;BME280;48756;41.374;2.066;2023-04-01T00:13:58;101126.72;;;16.26;74.81
56042;BME280;48756;41.374;2.066;2023-04-01T00:16:23;101117.78;;;16.33;74.25
56042;BME280;48756;41.374;2.066;2023-04-01T00:18:49;101125.94;;;16.22;74.80
56042;BME280;48756;41.374;2.066;2023-04-01T00:21:15;101139.44;;;15.75;77.24
56042;BME280;48756;41.374;2.066;2023-04-01T00:23:40;101129.44;;;15.89;77.28
56042;BME280;48756;41.374;2.066;2023-04-01T00:26:06;101110.97;;;15.92;76.52
56042;BME280;48756;41.374;2.066;2023-04-01T00:28:31;101123.44;;;16.18;76.79
56042;BME280;48756;41.374;2.066;2023-04-01T00:30:58;101130.59;;;15.39;78.76
56042;BME280;48756;41.374;2.066;2023-04-01T00:33:24;101119.47;;;15.68;79.40
56042;BME280;48756;41.374;2.066;2023-04-01T00:35:50;101109.91;;;15.99;77.19
56042;BME280;48756;41.374;2.066;2023-04-01T00:38:15;101101.59;;;16.16;75.78
56042;BME280;48756;41.374;2.066;2023-04-01T00:40:43;101102.09;;;16.29;75.44
56042;BME280;48756;41.374;2.066;2023-04-01T00:43:10;101091.53;;;16.32;75.81
56042;BME280;48756;41.374;2.066;2023-04-01T00:45:37;101083.75;;;16.27;75.50
56042;BME280;48756;41.374;2.066;2023-04-01T00:48:07;101094.72;;;16.10;75.59
56042;BME280;48756;41.374;2.066;2023-04-01T00:50:34;101093.75;;;16.14;75.65
56042;BME280;48756;41.374;2.066;2023-04-01T00:53:00;101090.97;;;16.19;76.08
56042;BME280;48756;41.374;2.066;2023-04-01T00:55:26;101091.16;;;16.13;76.32
56042;BME280;48756;41.374;2.066;2023-04-01T00:57:53;101092.91;;;16.12;76.10
56042;BME280;48756;41.374;2.066;2023-04-01T01:00:21;101090.59;;;16.00;75.69
56042;BME280;48756;41.374;2.066;2023-04-01T01:02:47;101102.69;;;15.73;77.13
56042;BME280;48756;41.374;2.066;2023-04-01T01:05:14;101102.63;;;15.75;77.23
56042;BME280;48756;41.374;2.066;2023-04-01T01:07:49;101111.31;;;15.78;76.94
56042;BME280;48756;41.374;2.066;2023-04-01T01:12:55;101106.00;;;15.80;76.28
56042;BME280;48756;41.374;2.066;2023-04-01T01:15:36;101114.91;;;15.74;76.67
56042;BME280;48756;41.374;2.066;2023-04-01T01:18:09;101106.38;;;15.66;78.63
56042;BME280;48756;41.374;2.066;2023-04-01T01:36:13;101100.50;;;15.53;77.84
56042;BME280;48756;41.374;2.066;2023-04-01T01:38:41;101099.00;;;15.43;77.94
56042;BME280;48756;41.374;2.066;2023-04-01T01:41:07;101096.19;;;15.51;77.90
56042;BME280;48756;41.374;2.066;2023-04-01T01:43:35;101096.06;;;15.55;78.27
56042;BME280;48756;41.374;2.066;2023-04-01T01:46:04;101094.13;;;15.65;77.58
56042;BME280;48756;41.374;2.066;2023-04-01T01:48:31;101094.88;;;15.70;77.64
56042;BME280;48756;41.374;2.066;2023-04-01T01:50:58;101101.69;;;15.77;77.47
56042;BME280;48756;41.374;2.066;2023-04-01T01:53:23;101090.56;;;15.68;77.45
56042;BME280;48756;41.374;2.066;2023-04-01T01:55:49;101090.53;;;15.69;77.57
56042;BME280;48756;41.374;2.066;2023-04-01T01:58:20;101080.09;;;15.66;77.17
56042;BME280;48756;41.374;2.066;2023-04-01T02:00:49;101074.41;;;15.47;77.47
56042;BME280;48756;41.374;2.066;2023-04-01T02:03:15;101075.50;;;15.37;77.88
56042;BME280;48756;41.374;2.066;2023-04-01T02:05:42;101071.72;;;15.49;78.08
56042;BME280;48756;41.374;2.066;2023-04-01T02:10:36;101059.34;;;15.54;77.68
56042;BME280;48756;41.374;2.066;2023-04-01T02:13:04;101066.25;;;15.58;77.63
56042;BME280;48756;41.374;2.066;2023-04-01T02:15:30;101064.63;;;15.52;77.99
56042;BME280;48756;41.374;2.066;2023-04-01T02:17:58;101067.16;;;15.57;77.29
56042;BME280;48756;41.374;2.066;2023-04-01T02:20:24;101071.44;;;15.61;77.63
56042;BME280;48756;41.374;2.066;2023-04-01T02:22:50;101064.50;;;15.58;77.64
56042;BME280;48756;41.374;2.066;2023-04-01T02:25:19;101063.44;;;15.67;77.31
56042;BME280;48756;41.374;2.066;2023-04-01T02:27:45;101060.13;;;15.59;78.04
56042;BME280;48756;41.374;2.066;2023-04-01T02:30:11;101055.97;;;15.49;78.89
56042;BME280;48756;41.374;2.066;2023-04-01T02:32:37;101058.84;;;15.38;78.12
56042;BME280;48756;41.374;2.066;2023-04-01T02:35:05;101056.06;;;15.46;78.74
56042;BME280;48756;41.374;2.066;2023-04-01T02:37:31;101059.56;;;15.45;78.42
56042;BME280;48756;41.374;2.066;2023-04-01T02:40:01;101061.63;;;15.32;78.56
56042;BME280;48756;41.374;2.066;2023-04-01T02:42:27;101062.53;;;15.31;77.96
56042;BME280;48756;41.374;2.066;2023-04-01T02:44:52;101068.47;;;15.38;78.01
56042;BME280;48756;41.374;2.066;2023-04-01T02:47:17;101059.47;;;15.49;78.11
56042;BME280;48756;41.374;2.066;2023-04-01T02:49:43;101059.09;;;15.66;76.52
56042;BME280;48756;41.374;2.066;2023-04-01T02:52:08;101065.06;;;15.71;77.09
56042;BME280;48756;41.374;2.066;2023-04-01T02:54:33;101060.31;;;15.87;76.68
56042;BME280;48756;41.374;2.066;2023-04-01T02:56:59;101053.31;;;15.86;77.13
56042;BME280;48756;41.374;2.066;2023-04-01T02:59:24;101062.94;;;15.87;76.81
56042;BME280;48756;41.374;2.066;2023-04-01T03:01:50;101058.50;;;15.89;76.27
56042;BME280;48756;41.374;2.066;2023-04-01T03:04:15;101056.16;;;15.77;76.58
56042;BME280;48756;41.374;2.066;2023-04-01T03:06:40;101056.16;;;15.77;77.04
56042;BME280;48756;41.374;2.066;2023-04-01T03:09:06;101056.22;;;15.75;77.22
56042;BME280;48756;41.374;2.066;2023-04-01T03:11:31;101054.72;;;15.65;77.64
56042;BME280;48756;41.374;2.066;2023-04-01T03:13:56;101060.56;;;15.76;77.28
56042;BME280;48756;41.374;2.066;2023-04-01T03:16:22;101054.19;;;15.86;76.89
56042;BME280;48756;41.374;2.066;2023-04-01T03:18:47;101052.34;;;15.90;77.05
56042;BME280;48756;41.374;2.066;2023-04-01T03:23:40;101048.03;;;15.87;76.35
56042;BME280;48756;41.374;2.066;2023-04-01T03:26:05;101052.25;;;15.93;76.74
56042;BME280;48756;41.374;2.066;2023-04-01T03:28:31;101051.19;;;16.00;76.71
56042;BME280;48756;41.374;2.066;2023-04-01T03:30:56;101060.00;;;15.98;76.95
56042;BME280;48756;41.374;2.066;2023-04-01T03:33:21;101059.09;;;15.99;77.08
56042;BME280;48756;41.374;2.066;2023-04-01T03:35:47;101052.75;;;16.06;77.26
56042;BME280;48756;41.374;2.066;2023-04-01T03:38:12;101051.88;;;16.07;76.62
56042;BME280;48756;41.374;2.066;2023-04-01T03:40:38;101049.66;;;15.91;77.50
56042;BME280;48756;41.374;2.066;2023-04-01T03:43:06;101046.34;;;15.85;78.25
56042;BME280;48756;41.374;2.066;2023-04-01T03:45:33;101040.75;;;15.97;77.30
56042;BME280;48756;41.374;2.066;2023-04-01T03:47:58;101031.88;;;16.01;77.55
56042;BME280;48756;41.374;2.066;2023-04-01T03:50:24;101027.56;;;15.99;78.01
56042;BME280;48756;41.374;2.066;2023-04-01T03:52:49;101029.06;;;16.09;77.71
56042;BME280;48756;41.374;2.066;2023-04-01T03:55:17;101042.75;;;16.20;77.81
56042;BME280;48756;41.374;2.066;2023-04-01T03:57:43;101033.22;;;16.16;77.56
56042;BME280;48756;41.374;2.066;2023-04-01T04:00:11;101038.53;;;16.14;77.82
56042;BME280;48756;41.374;2.066;2023-04-01T04:02:36;101040.13;;;16.20;78.12
56042;BME280;48756;41.374;2.066;2023-04-01T04:05:02;101034.38;;;16.06;78.12
56042;BME280;48756;41.374;2.066;2023-04-01T04:07:27;101033.41;;;16.10;78.77
56042;BME280;48756;41.374;2.066;2023-04-01T04:09:52;101044.56;;;16.18;79.45
56042;BME280;48756;41.374;2.066;2023-04-01T04:12:18;101046.25;;;16.20;78.20
56042;BME280;48756;41.374;2.066;2023-04-01T04:14:43;101039.31;;;16.18;78.52
56042;BME280;48756;41.374;2.066;2023-04-01T04:17:11;101035.78;;;16.19;78.00
56042;BME280;48756;41.374;2.066;2023-04-01T04:19:41;101044.09;;;16.35;78.44
56042;BME280;48756;41.374;2.066;2023-04-01T04:22:06;101042.75;;;16.20;77.30
56042;BME280;48756;41.374;2.066;2023-04-01T04:24:35;101035.09;;;16.12;78.70
56042;BME280;48756;41.374;2.066;2023-04-01T04:27:00;101035.94;;;16.13;78.41
56042;BME280;48756;41.374;2.066;2023-04-01T04:29:26;101032.28;;;16.18;78.72
56042;BME280;48756;41.374;2.066;2023-04-01T04:31:51;101044.59;;;16.16;79.07
56042;BME280;48756;41.374;2.066;2023-04-01T04:34:16;101045.41;;;15.87;80.55
56042;BME280;48756;41.374;2.066;2023-04-01T04:36:43;101038.38;;;15.88;80.53
56042;BME280;48756;41.374;2.066;2023-04-01T04:39:08;101032.66;;;15.72;81.83
56042;BME280;48756;41.374;2.066;2023-04-01T04:41:36;101040.28;;;15.81;81.77
56042;BME280;48756;41.374;2.066;2023-04-01T04:44:02;101038.94;;;15.99;80.36
56042;BME280;48756;41.374;2.066;2023-04-01T04:46:27;101034.88;;;15.87;80.31
56042;BME280;48756;41.374;2.066;2023-04-01T04:48:52;101029.63;;;15.87;81.33
56042;BME280;48756;41.374;2.066;2023-04-01T04:51:18;101033.97;;;15.88;82.24
56042;BME280;48756;41.374;2.066;2023-04-01T04:53:44;101030.41;;;16.22;80.66
56042;BME280;48756;41.374;2.066;2023-04-01T04:56:10;101028.47;;;16.29;81.81
56042;BME280;48756;41.374;2.066;2023-04-01T04:58:36;101019.47;;;16.37;80.98
56042;BME280;48756;41.374;2.066;2023-04-01T05:01:11;101018.84;;;16.28;81.39
56042;BME280;48756;41.374;2.066;2023-04-01T05:03:37;101022.94;;;16.07;83.72
56042;BME280;48756;41.374;2.066;2023-04-01T05:06:05;101026.53;;;16.04;82.93
56042;BME280;48756;41.374;2.066;2023-04-01T05:08:31;101034.66;;;15.61;84.58
56042;BME280;48756;41.374;2.066;2023-04-01T05:10:58;101044.16;;;15.68;83.96
56042;BME280;48756;41.374;2.066;2023-04-01T05:13:24;101046.09;;;15.94;82.39
56042;BME280;48756;41.374;2.066;2023-04-01T05:15:49;101043.84;;;16.13;80.89
56042;BME280;48756;41.374;2.066;2023-04-01T05:18:14;101054.56;;;16.04;81.67
56042;BME280;48756;41.374;2.066;2023-04-01T05:20:45;101055.03;;;15.51;82.82
56042;BME280;48756;41.374;2.066;2023-04-01T05:23:10;101055.63;;;15.64;82.22
56042;BME280;48756;41.374;2.066;2023-04-01T05:25:37;101048.72;;;15.94;81.16
56042;BME280;48756;41.374;2.066;2023-04-01T05:28:03;101052.28;;;15.56;80.70
56042;BME280;48756;41.374;2.066;2023-04-01T05:30:28;101049.28;;;15.73;82.11
56042;BME280;48756;41.374;2.066;2023-04-01T05:32:53;101049.94;;;15.81;81.08
56042;BME280;48756;41.374;2.066;2023-04-01T05:35:18;101049.22;;;15.74;80.46
56042;BME280;48756;41.374;2.066;2023-04-01T05:37:44;101047.84;;;15.58;80.17
56042;BME280;48756;41.374;2.066;2023-04-01T05:40:09;101055.00;;;15.17;81.04
56042;BME280;48756;41.374;2.066;2023-04-01T05:42:35;101061.38;;;15.06;80.98
56042;BME280;48756;41.374;2.066;2023-04-01T05:45:00;101057.94;;;15.41;80.01
56042;BME280;48756;41.374;2.066;2023-04-01T05:47:26;101070.44;;;15.29;78.61
56042;BME280;48756;41.374;2.066;2023-04-01T05:49:51;101082.94;;;14.80;79.48
56042;BME280;48756;41.374;2.066;2023-04-01T05:52:16;101076.25;;;15.05;79.72
56042;BME280;48756;41.374;2.066;2023-04-01T05:54:42;101079.44;;;14.79;79.80
56042;BME280;48756;41.374;2.066;2023-04-01T05:57:07;101075.22;;;15.12;79.31
56042;BME280;48756;41.374;2.066;2023-04-01T05:59:32;101081.78;;;14.91;80.21
56042;BME280;48756;41.374;2.066;2023-04-01T06:01:59;101084.66;;;14.81;79.96
56042;BME280;48756;41.374;2.066;2023-04-01T06:04:26;101091.28;;;14.98;78.96
56042;BME280;48756;41.374;2.066;2023-04-01T06:06:53;101094.19;;;14.85;78.77
56042;BME280;48756;41.374;2.066;2023-04-01T06:09:24;101087.81;;;14.96;78.01
56042;BME280;48756;41.374;2.066;2023-04-01T06:17:12;101089.13;;;14.77;69.68
56042;BME280;48756;41.374;2.066;2023-04-01T06:22:35;101084.50;;;15.27;65.89
56042;BME280;48756;41.374;2.066;2023-04-01T06:25:09;101093.16;;;15.30;67.63
56042;BME280;48756;41.374;2.066;2023-04-01T06:27:45;101085.38;;;15.27;68.79
56042;BME280;48756;41.374;2.066;2023-04-01T06:35:42;101076.19;;;15.08;68.83
56042;BME280;48756;41.374;2.066;2023-04-01T06:43:33;101090.38;;;14.99;69.94
56042;BME280;48756;41.374;2.066;2023-04-01T06:48:33;101097.00;;;15.16;67.41
56042;BME280;48756;41.374;2.066;2023-04-01T06:56:02;101101.81;;;14.97;66.07
56042;BME280;48756;41.374;2.066;2023-04-01T06:58:34;101097.00;;;15.16;64.96
56042;BME280;48756;41.374;2.066;2023-04-01T07:01:04;101092.25;;;14.93;62.73
56042;BME280;48756;41.374;2.066;2023-04-01T07:03:43;101073.69;;;15.41;60.48
56042;BME280;48756;41.374;2.066;2023-04-01T07:06:13;101086.91;;;14.99;59.68
56042;BME280;48756;41.374;2.066;2023-04-01T07:08:40;101094.97;;;15.28;56.80
56042;BME280;48756;41.374;2.066;2023-04-01T07:11:09;101092.75;;;15.49;54.47
56042;BME280;48756;41.374;2.066;2023-04-01T07:18:49;101077.38;;;15.32;52.76
56042;BME280;48756;41.374;2.066;2023-04-01T07:23:51;101078.13;;;15.37;52.00
56042;BME280;48756;41.374;2.066;2023-04-01T07:26:22;101075.63;;;15.32;50.61
56042;BME280;48756;41.374;2.066;2023-04-01T07:28:48;101065.94;;;15.35;50.56
56042;BME280;48756;41.374;2.066;2023-04-01T07:36:27;101073.72;;;15.38;49.61
56042;BME280;48756;41.374;2.066;2023-04-01T07:41:28;101077.81;;;15.51;49.58
56042;BME280;48756;41.374;2.066;2023-04-01T07:44:02;101071.69;;;15.50;48.33
56042;BME280;48756;41.374;2.066;2023-04-01T07:49:17;101074.03;;;15.64;48.60
56042;BME280;48756;41.374;2.066;2023-04-01T07:51:57;101084.31;;;15.35;48.71
56042;BME280;48756;41.374;2.066;2023-04-01T07:54:43;101079.38;;;15.58;48.30
56042;BME280;48756;41.374;2.066;2023-04-01T07:57:21;101082.00;;;15.59;47.86
56042;BME280;48756;41.374;2.066;2023-04-01T08:00:02;101075.06;;;15.55;47.64
56042;BME280;48756;41.374;2.066;2023-04-01T08:02:39;101077.00;;;15.84;47.62
56042;BME280;48756;41.374;2.066;2023-04-01T08:12:57;101088.59;;;15.40;47.51
56042;BME280;48756;41.374;2.066;2023-04-01T08:23:14;101070.81;;;15.50;47.13
56042;BME280;48756;41.374;2.066;2023-04-01T08:30:57;101071.88;;;15.78;46.60
56042;BME280;48756;41.374;2.066;2023-04-01T08:33:28;101065.19;;;15.67;46.40
56042;BME280;48756;41.374;2.066;2023-04-01T08:36:16;101075.88;;;15.57;46.83
56042;BME280;48756;41.374;2.066;2023-04-01T08:38:44;101078.66;;;15.51;46.75
56042;BME280;48756;41.374;2.066;2023-04-01T08:43:51;101081.59;;;15.76;47.09
56042;BME280;48756;41.374;2.066;2023-04-01T09:07:22;101071.81;;;16.46;45.95
56042;BME280;48756;41.374;2.066;2023-04-01T09:10:11;101074.22;;;16.23;45.96
56042;BME280;48756;41.374;2.066;2023-04-01T09:12:44;101075.25;;;16.48;45.22
56042;BME280;48756;41.374;2.066;2023-04-01T09:25:45;101086.66;;;16.80;44.84
56042;BME280;48756;41.374;2.066;2023-04-01T09:30:58;101082.06;;;16.87;44.64
56042;BME280;48756;41.374;2.066;2023-04-01T09:41:34;101071.25;;;17.52;43.45
56042;BME280;48756;41.374;2.066;2023-04-01T10:00:04;101068.75;;;17.75;41.95
56042;BME280;48756;41.374;2.066;2023-04-01T10:02:53;101058.44;;;18.19;41.42
56042;BME280;48756;41.374;2.066;2023-04-01T10:10:42;101060.63;;;18.06;41.23
56042;BME280;48756;41.374;2.066;2023-04-01T10:26:38;101029.53;;;19.73;37.39
56042;BME280;48756;41.374;2.066;2023-04-01T10:55:36;100983.50;;;20.18;33.77
56042;BME280;48756;41.374;2.066;2023-04-01T11:00:41;100976.25;;;20.42;34.00
56042;BME280;48756;41.374;2.066;2023-04-01T11:20:52;100926.03;;;21.13;31.83
56042;BME280;48756;41.374;2.066;2023-04-01T11:28:52;100913.69;;;21.30;31.23
56042;BME280;48756;41.374;2.066;2023-04-01T11:36:51;100899.72;;;22.10;33.17
56042;BME280;48756;41.374;2.066;2023-04-01T11:42:12;100891.88;;;23.62;30.35
56042;BME280;48756;41.374;2.066;2023-04-01T11:44:50;100886.03;;;23.41;30.79
56042;BME280;48756;41.374;2.066;2023-04-01T11:59:49;100887.16;;;23.37;31.52
56042;BME280;48756;41.374;2.066;2023-04-01T12:17:45;100846.53;;;23.05;31.36
56042;BME280;48756;41.374;2.066;2023-04-01T12:23:09;100845.84;;;23.45;31.95
56042;BME280;48756;41.374;2.066;2023-04-01T12:36:03;100819.69;;;24.09;30.31
56042;BME280;48756;41.374;2.066;2023-04-01T12:41:10;100807.91;;;23.99;32.44
56042;BME280;48756;41.374;2.066;2023-04-01T12:59:36;100790.41;;;24.50;31.02
56042;BME280;48756;41.374;2.066;2023-04-01T13:07:08;100762.09;;;24.08;31.83
56042;BME280;48756;41.374;2.066;2023-04-01T13:12:36;100759.69;;;22.91;34.14
56042;BME280;48756;41.374;2.066;2023-04-01T13:20:30;100743.34;;;23.82;31.92
56042;BME280;48756;41.374;2.066;2023-04-01T13:28:25;100721.91;;;25.41;30.06
56042;BME280;48756;41.374;2.066;2023-04-01T13:31:02;100715.44;;;25.82;28.81
56042;BME280;48756;41.374;2.066;2023-04-01T13:41:01;100690.53;;;26.29;24.96
56042;BME280;48756;41.374;2.066;2023-04-01T13:43:32;100654.31;;;24.66;23.54
56042;BME280;48756;41.374;2.066;2023-04-01T13:58:59;100658.38;;;24.59;22.23
56042;BME280;48756;41.374;2.066;2023-04-01T14:12:04;100655.34;;;23.30;24.42
56042;BME280;48756;41.374;2.066;2023-04-01T14:14:47;100633.81;;;23.20;24.94
56042;BME280;48756;41.374;2.066;2023-04-01T14:43:09;100603.91;;;23.85;24.86
56042;BME280;48756;41.374;2.066;2023-04-01T14:45:44;100608.44;;;23.29;25.79
56042;BME280;48756;41.374;2.066;2023-04-01T14:50:56;100601.06;;;23.47;25.00
56042;BME280;48756;41.374;2.066;2023-04-01T14:55:49;100598.19;;;23.37;25.40
56042;BME280;48756;41.374;2.066;2023-04-01T14:58:17;100596.16;;;22.71;26.38
56042;BME280;48756;41.374;2.066;2023-04-01T15:03:13;100588.25;;;23.80;24.80
56042;BME280;48756;41.374;2.066;2023-04-01T15:08:15;100587.16;;;23.29;25.62
56042;BME280;48756;41.374;2.066;2023-04-01T15:18:16;100603.88;;;22.31;26.64
56042;BME280;48756;41.374;2.066;2023-04-01T15:21:02;100578.16;;;22.90;26.28
56042;BME280;48756;41.374;2.066;2023-04-01T15:31:13;100579.00;;;22.91;26.26
56042;BME280;48756;41.374;2.066;2023-04-01T15:38:53;100571.59;;;22.96;26.94
56042;BME280;48756;41.374;2.066;2023-04-01T15:41:24;100583.16;;;23.77;26.40
56042;BME280;48756;41.374;2.066;2023-04-01T15:43:53;100565.94;;;23.56;26.24
56042;BME280;48756;41.374;2.066;2023-04-01T15:54:23;100574.19;;;23.25;26.68
56042;BME280;48756;41.374;2.066;2023-04-01T15:56:55;100562.91;;;23.07;27.25
56042;BME280;48756;41.374;2.066;2023-04-01T15:59:33;100565.06;;;23.82;26.61
56042;BME280;48756;41.374;2.066;2023-04-01T16:02:19;100552.31;;;22.92;26.91
56042;BME280;48756;41.374;2.066;2023-04-01T16:04:50;100559.84;;;22.86;26.92
56042;BME280;48756;41.374;2.066;2023-04-01T16:07:23;100547.75;;;22.80;27.08
56042;BME280;48756;41.374;2.066;2023-04-01T16:12:25;100553.84;;;22.68;27.27
56042;BME280;48756;41.374;2.066;2023-04-01T16:15:06;100542.72;;;22.61;27.34
56042;BME280;48756;41.374;2.066;2023-04-01T16:22:35;100548.97;;;22.18;27.10
56042;BME280;48756;41.374;2.066;2023-04-01T16:25:20;100553.47;;;22.01;26.78
56042;BME280;48756;41.374;2.066;2023-04-01T16:27:59;100550.56;;;22.06;26.82
56042;BME280;48756;41.374;2.066;2023-04-01T16:33:00;100556.75;;;21.91;27.16
56042;BME280;48756;41.374;2.066;2023-04-01T16:35:47;100538.94;;;21.79;26.84
56042;BME280;48756;41.374;2.066;2023-04-01T16:43:51;100531.81;;;21.79;25.52
56042;BME280;48756;41.374;2.066;2023-04-01T16:51:17;100509.91;;;22.06;25.27
56042;BME280;48756;41.374;2.066;2023-04-01T16:53:48;100509.00;;;21.91;24.76
56042;BME280;48756;41.374;2.066;2023-04-01T16:56:23;100511.41;;;21.95;24.46
56042;BME280;48756;41.374;2.066;2023-04-01T17:01:20;100497.06;;;21.84;24.14
56042;BME280;48756;41.374;2.066;2023-04-01T17:03:49;100499.06;;;21.50;24.66
56042;BME280;48756;41.374;2.066;2023-04-01T17:06:33;100494.00;;;21.46;25.28
56042;BME280;48756;41.374;2.066;2023-04-01T17:14:20;100475.13;;;21.66;25.14
56042;BME280;48756;41.374;2.066;2023-04-01T17:19:36;100469.94;;;21.34;24.86
56042;BME280;48756;41.374;2.066;2023-04-01T17:22:11;100459.56;;;21.46;25.52
56042;BME280;48756;41.374;2.066;2023-04-01T17:32:26;100461.50;;;21.28;24.63
56042;BME280;48756;41.374;2.066;2023-04-01T18:00:03;100480.56;;;20.71;26.32
56042;BME280;48756;41.374;2.066;2023-04-01T18:15:27;100516.66;;;20.57;27.19
56042;BME280;48756;41.374;2.066;2023-04-01T18:20:47;100516.56;;;20.25;26.76
56042;BME280;48756;41.374;2.066;2023-04-01T18:23:29;100521.94;;;20.41;26.85
56042;BME280;48756;41.374;2.066;2023-04-01T18:26:04;100507.94;;;20.22;27.25
56042;BME280;48756;41.374;2.066;2023-04-01T18:28:36;100522.09;;;20.38;27.24
56042;BME280;48756;41.374;2.066;2023-04-01T18:36:18;100551.75;;;20.27;26.85
56042;BME280;48756;41.374;2.066;2023-04-01T18:38:46;100564.19;;;20.25;27.02
56042;BME280;48756;41.374;2.066;2023-04-01T18:41:28;100572.38;;;20.21;27.08
56042;BME280;48756;41.374;2.066;2023-04-01T18:44:04;100584.88;;;20.34;27.52
56042;BME280;48756;41.374;2.066;2023-04-01T18:46:54;100588.78;;;20.27;27.61
56042;BME280;48756;41.374;2.066;2023-04-01T18:49:30;100600.94;;;20.14;27.04
56042;BME280;48756;41.374;2.066;2023-04-01T18:52:19;100610.97;;;20.25;27.29
56042;BME280;48756;41.374;2.066;2023-04-01T18:55:16;100603.56;;;20.31;26.86
56042;BME280;48756;41.374;2.066;2023-04-01T18:57:39;100611.59;;;20.12;27.15
56042;BME280;48756;41.374;2.066;2023-04-01T19:00:08;100626.31;;;20.01;26.56
56042;BME280;48756;41.374;2.066;2023-04-01T19:02:45;100640.31;;;20.20;27.24
56042;BME280;48756;41.374;2.066;2023-04-01T19:05:29;100661.38;;;20.04;27.51
56042;BME280;48756;41.374;2.066;2023-04-01T19:07:56;100684.75;;;19.77;28.73
56042;BME280;48756;41.374;2.066;2023-04-01T19:10:37;100700.13;;;19.69;28.74
56042;BME280;48756;41.374;2.066;2023-04-01T19:13:10;100665.50;;;19.56;29.07
56042;BME280;48756;41.374;2.066;2023-04-01T19:23:49;100673.28;;;19.60;36.69
56042;BME280;48756;41.374;2.066;2023-04-01T19:34:12;100737.09;;;17.63;56.67
56042;BME280;48756;41.374;2.066;2023-04-01T19:36:50;100756.41;;;17.40;57.85
56042;BME280;48756;41.374;2.066;2023-04-01T19:39:31;100798.41;;;17.20;59.12
56042;BME280;48756;41.374;2.066;2023-04-01T19:46:57;100805.16;;;17.03;57.44
56042;BME280;48756;41.374;2.066;2023-04-01T19:57:52;100767.28;;;16.56;58.39
56042;BME280;48756;41.374;2.066;2023-04-01T20:00:38;100780.25;;;16.34;59.68
56042;BME280;48756;41.374;2.066;2023-04-01T20:13:46;100799.25;;;16.16;62.09
56042;BME280;48756;41.374;2.066;2023-04-01T20:16:13;100815.84;;;16.18;62.30
56042;BME280;48756;41.374;2.066;2023-04-01T20:23:56;100881.09;;;16.04;63.21
56042;BME280;48756;41.374;2.066;2023-04-01T20:26:25;100883.91;;;15.98;63.46
56042;BME280;48756;41.374;2.066;2023-04-01T20:31:43;100905.03;;;15.64;65.29
56042;BME280;48756;41.374;2.066;2023-04-01T20:44:10;100921.56;;;15.67;65.96
56042;BME280;48756;41.374;2.066;2023-04-01T20:49:32;100865.81;;;15.88;66.84
56042;BME280;48756;41.374;2.066;2023-04-01T20:54:33;100834.25;;;15.26;70.92
56042;BME280;48756;41.374;2.066;2023-04-01T20:57:09;100838.84;;;15.18;73.68
56042;BME280;48756;41.374;2.066;2023-04-01T21:17:31;100892.16;;;15.53;71.69
56042;BME280;48756;41.374;2.066;2023-04-01T21:22:42;100873.56;;;15.28;72.67
56042;BME280;48756;41.374;2.066;2023-04-01T21:41:14;100851.50;;;15.02;72.26
56042;BME280;48756;41.374;2.066;2023-04-01T21:46:37;100853.09;;;15.08;67.89
56042;BME280;48756;41.374;2.066;2023-04-01T21:54:39;100856.22;;;15.22;67.84
56042;BME280;48756;41.374;2.066;2023-04-01T22:05:07;100867.47;;;15.27;69.22
56042;BME280;48756;41.374;2.066;2023-04-01T22:07:40;100869.16;;;15.30;68.65
56042;BME280;48756;41.374;2.066;2023-04-01T22:10:14;100872.16;;;15.16;69.53
56042;BME280;48756;41.374;2.066;2023-04-01T22:12:53;100868.38;;;15.26;70.45
56042;BME280;48756;41.374;2.066;2023-04-01T22:15:32;100864.09;;;15.22;70.32
56042;BME280;48756;41.374;2.066;2023-04-01T22:18:06;100858.16;;;14.82;70.44
56042;BME280;48756;41.374;2.066;2023-04-01T22:20:59;100872.06;;;14.48;73.96
56042;BME280;48756;41.374;2.066;2023-04-01T22:23:48;100862.53;;;14.44;75.16
56042;BME280;48756;41.374;2.066;2023-04-01T22:31:24;100871.84;;;14.57;76.00
56042;BME280;48756;41.374;2.066;2023-04-01T22:33:54;100871.44;;;14.76;75.72
56042;BME280;48756;41.374;2.066;2023-04-01T22:36:31;100872.09;;;14.84;74.96
56042;BME280;48756;41.374;2.066;2023-04-01T22:39:09;100871.50;;;14.73;75.47
56042;BME280;48756;41.374;2.066;2023-04-01T22:44:20;100869.03;;;14.65;74.56
56042;BME280;48756;41.374;2.066;2023-04-01T22:49:23;100861.69;;;14.42;75.30
56042;BME280;48756;41.374;2.066;2023-04-01T22:51:54;100862.50;;;14.46;75.33
56042;BME280;48756;41.374;2.066;2023-04-01T22:54:22;100863.50;;;14.40;75.45
56042;BME280;48756;41.374;2.066;2023-04-01T22:56:53;100857.59;;;14.30;76.90
56042;BME280;48756;41.374;2.066;2023-04-01T22:59:25;100856.44;;;14.42;76.87
56042;BME280;48756;41.374;2.066;2023-04-01T23:01:57;100853.81;;;14.44;76.03
56042;BME280;48756;41.374;2.066;2023-04-01T23:04:28;100849.34;;;14.49;76.70
56042;BME280;48756;41.374;2.066;2023-04-01T23:06:57;100853.63;;;14.53;75.99
56042;BME280;48756;41.374;2.066;2023-04-01T23:09:28;100847.44;;;14.55;75.97
56042;BME280;48756;41.374;2.066;2023-04-01T23:11:56;100843.72;;;14.25;76.81
56042;BME280;48756;41.374;2.066;2023-04-01T23:16:56;100832.41;;;14.23;78.45
56042;BME280;48756;41.374;2.066;2023-04-01T23:19:26;100831.56;;;14.23;77.54
56042;BME280;48756;41.374;2.066;2023-04-01T23:22:12;100832.28;;;14.29;78.06